KLIT/LIT METAR and TAF weather

Enter ICAO airport designator
Station Type Date Time Source
KLIT METAR 2019/10/21 02:15 UTC NOAA

KLIT 210215Z 16005KT 10SM FEW055 FEW250 20/19 A2976 RMK AO2 $


Station Type Date Time Source
KLIT Decoded METAR 2019/10/21 02:15 UTC NOAA

LITTLE ROCK ADAMS FIELD, AR, United States (KLIT) 34-44N 92-14W 79M
Oct 20, 2019 - 10:15 PM EDT / 2019.10.21 0215 UTC
Wind: from the SSE (160 degrees) at 6 MPH (5 KT):0
Visibility: 10 mile(s):0
Sky conditions: mostly clear
Temperature: 68 F (20 C)
Dew Point: 66 F (19 C)
Relative Humidity: 93%
Pressure (altimeter): 29.76 in. Hg (1007 hPa)
ob: KLIT 210215Z 16005KT 10SM FEW055 FEW250 20/19 A2976 RMK AO2
cycle: 2

Station Type Date Time Source
KLIT TAF 2019/10/20 18:42 UTC NOAA

TAF KLIT 201739Z 2018/2118 13007KT P6SM SCT150
FM210600 20012KT P6SM BKN050 OVC100
FM210900 22011G17KT 5SM TSRA BKN025CB OVC050
FM211300 30010G17KT P6SM -SHRA OVC040
FM211500 28012G20KT P6SM BKN050

Example: see airport list